• Join FlightAware (Why Join?)
  • Login
  • US Flag 
11:30AM EDT


 

Airport Tracker/Info


-or-


 

Live Flight TrackerFlight Track Log ✈ N673AM ✈ 15-May-2014 ✈ KAHN - KFFC

Flight Track Log - Related Links

Times and Time Zones

All times are in EDT time to prevent confusion due to time zone crossing. See the N673AM flight status page for this flight to view local times or setup timezone preferences in your user account.

Time Position Orientation Groundspeed Altitude Reporting Facility
EDT Latitude Longitude Course Direction KTS MPH feet Rate Location/Type
04:33PM 33.9167 -83.3667 220° Southwest 89 102 2,300  Level Atlanta TRACON
04:34PM 33.8833 -83.3833 203° Southwest 95 109 2,900 600 Climbing Atlanta TRACON
04:35PM 33.8667 -83.4000 220° Southwest 87 100 3,500 540 Climbing Atlanta TRACON
04:36PM 33.8500 -83.4167 220° Southwest 84 97 4,000 240 Climbing Atlanta TRACON
04:37PM 33.8634 -83.5085 194° South  Level Estimated
04:37PM 33.8333 -83.4333 220° Southwest 105 121 4,000  Level Atlanta TRACON
04:38PM 33.8167 -83.4667 239° Southwest 109 125 4,000  Level Atlanta TRACON
04:39PM 33.7833 -83.4833 203° Southwest 113 130 4,000  Level Atlanta TRACON
04:40PM 33.7667 -83.5167 239° Southwest 111 128 4,000  Level Atlanta TRACON
04:41PM 33.7333 -83.5333 203° Southwest 116 133 4,000 -60 Level Atlanta TRACON
04:42PM 33.7167 -83.5667 239° Southwest 117 135 3,900 -60 Descending Atlanta TRACON
04:43PM 33.7000 -83.6000 239° Southwest 116 133 3,900  Level Atlanta TRACON
04:44PM 33.6667 -83.6167 203° Southwest 119 137 4,000  Climbing Atlanta TRACON
04:45PM 33.6500 -83.6500 239° Southwest 117 135 4,000  Level Atlanta TRACON
04:46PM 33.6167 -83.6667 203° Southwest 119 137 4,000  Level Atlanta TRACON
04:47PM 33.6000 -83.7000 239° Southwest 112 129 4,100  Climbing Atlanta TRACON
04:48PM 33.5667 -83.7167 203° Southwest 117 135 4,100  Level Atlanta TRACON
04:49PM 33.5500 -83.7500 239° Southwest 120 138 4,100 -60 Level Atlanta TRACON
04:50PM 33.5167 -83.7667 203° Southwest 128 147 4,000 -60 Descending Atlanta TRACON
04:51PM 33.5000 -83.8000 239° Southwest 119 137 4,000  Level Atlanta TRACON
04:52PM 33.4833 -83.8333 239° Southwest 120 138 4,000  Level Atlanta TRACON
04:53PM 33.4500 -83.8500 203° Southwest 122 140 4,000  Level Atlanta TRACON
04:54PM 33.4333 -83.8833 239° Southwest 123 142 4,100  Climbing Atlanta TRACON
04:55PM 33.4000 -83.9000 203° Southwest 119 137 4,100  Level Atlanta TRACON
04:56PM 33.3833 -83.9333 239° Southwest 116 133 4,100  Level Atlanta TRACON
04:57PM 33.3500 -83.9667 220° Southwest 119 137 4,100  Level Atlanta TRACON
04:58PM 33.3333 -83.9833 220° Southwest 116 133 4,100 -60 Level Atlanta TRACON
04:59PM 33.3167 -84.0167 239° Southwest 117 135 4,000 -60 Descending Atlanta TRACON
05:00PM 33.3000 -84.0500 239° Southwest 117 135 4,000  Level Atlanta TRACON
05:01PM 33.2833 -84.1000 248° West 118 136 4,000  Level Atlanta TRACON
05:02PM 33.2833 -84.1333 270° West 117 135 4,000  Level Atlanta TRACON
05:03PM 33.2667 -84.1667 239° Southwest 113 130 4,000  Level Atlanta TRACON
05:04PM 33.2500 -84.2000 239° Southwest 116 133 4,000 -120 Level Atlanta TRACON
05:05PM 33.2333 -84.2333 239° Southwest 122 140 3,800 -300 Descending Atlanta TRACON
05:06PM 33.2333 -84.2833 270° West 122 140 3,400 -360 Descending Atlanta TRACON
05:07PM 33.2333 -84.3167 270° West 107 123 3,100 -240 Descending Atlanta TRACON
05:08PM 33.2333 -84.3500 270° West 103 119 3,000 -120 Descending Atlanta TRACON